sensor_id;sensor_type;location;lat;lon;timestamp;P1;durP1;ratioP1;P2;durP2;ratioP2
20749;SDS011;10535;50.664;4.564;2022-10-17T00:00:45;9.20;;;4.80;;
20749;SDS011;10535;50.664;4.564;2022-10-17T00:03:11;10.77;;;5.43;;
20749;SDS011;10535;50.664;4.564;2022-10-17T00:05:40;8.93;;;5.70;;
20749;SDS011;10535;50.664;4.564;2022-10-17T00:08:08;9.73;;;5.43;;
20749;SDS011;10535;50.664;4.564;2022-10-17T00:10:35;8.83;;;4.70;;
20749;SDS011;10535;50.664;4.564;2022-10-17T00:13:01;9.93;;;5.27;;
20749;SDS011;10535;50.664;4.564;2022-10-17T00:15:27;7.83;;;5.30;;
20749;SDS011;10535;50.664;4.564;2022-10-17T00:17:53;7.70;;;5.60;;
20749;SDS011;10535;50.664;4.564;2022-10-17T00:20:18;11.40;;;5.70;;
20749;SDS011;10535;50.664;4.564;2022-10-17T00:22:44;20.73;;;7.27;;
20749;SDS011;10535;50.664;4.564;2022-10-17T00:25:10;9.43;;;5.37;;
20749;SDS011;10535;50.664;4.564;2022-10-17T00:27:36;11.70;;;5.53;;
20749;SDS011;10535;50.664;4.564;2022-10-17T00:30:03;9.20;;;5.10;;
20749;SDS011;10535;50.664;4.564;2022-10-17T00:32:30;7.87;;;5.33;;
20749;SDS011;10535;50.664;4.564;2022-10-17T00:34:56;6.43;;;4.97;;
20749;SDS011;10535;50.664;4.564;2022-10-17T00:37:22;13.07;;;5.00;;
20749;SDS011;10535;50.664;4.564;2022-10-17T00:39:48;13.00;;;5.67;;
20749;SDS011;10535;50.664;4.564;2022-10-17T00:42:14;16.17;;;5.53;;
20749;SDS011;10535;50.664;4.564;2022-10-17T00:47:12;10.63;;;5.23;;
20749;SDS011;10535;50.664;4.564;2022-10-17T00:49:40;8.53;;;5.20;;
20749;SDS011;10535;50.664;4.564;2022-10-17T00:52:14;13.73;;;5.13;;
20749;SDS011;10535;50.664;4.564;2022-10-17T00:54:48;7.83;;;4.73;;
20749;SDS011;10535;50.664;4.564;2022-10-17T00:57:19;8.53;;;5.50;;
20749;SDS011;10535;50.664;4.564;2022-10-17T00:59:46;13.87;;;5.73;;
20749;SDS011;10535;50.664;4.564;2022-10-17T01:02:16;9.53;;;5.53;;
20749;SDS011;10535;50.664;4.564;2022-10-17T01:04:45;10.03;;;5.63;;
20749;SDS011;10535;50.664;4.564;2022-10-17T01:07:14;8.43;;;5.27;;
20749;SDS011;10535;50.664;4.564;2022-10-17T01:09:40;10.20;;;5.60;;
20749;SDS011;10535;50.664;4.564;2022-10-17T01:20:41;12.00;;;5.00;;
20749;SDS011;10535;50.664;4.564;2022-10-17T01:26:31;8.40;;;5.47;;
20749;SDS011;10535;50.664;4.564;2022-10-17T01:31:54;9.70;;;5.37;;
20749;SDS011;10535;50.664;4.564;2022-10-17T01:34:44;8.27;;;4.70;;
20749;SDS011;10535;50.664;4.564;2022-10-17T01:43:22;8.13;;;5.23;;
20749;SDS011;10535;50.664;4.564;2022-10-17T01:48:38;10.43;;;4.90;;
20749;SDS011;10535;50.664;4.564;2022-10-17T01:51:09;7.93;;;5.10;;
20749;SDS011;10535;50.664;4.564;2022-10-17T01:53:52;9.57;;;5.80;;
20749;SDS011;10535;50.664;4.564;2022-10-17T01:56:40;13.00;;;5.27;;
20749;SDS011;10535;50.664;4.564;2022-10-17T01:59:12;8.23;;;4.70;;
20749;SDS011;10535;50.664;4.564;2022-10-17T02:01:45;8.00;;;4.70;;
20749;SDS011;10535;50.664;4.564;2022-10-17T02:04:12;6.50;;;4.37;;
20749;SDS011;10535;50.664;4.564;2022-10-17T02:06:37;8.10;;;4.57;;
20749;SDS011;10535;50.664;4.564;2022-10-17T02:09:20;6.60;;;4.80;;
20749;SDS011;10535;50.664;4.564;2022-10-17T02:11:53;9.30;;;5.20;;
20749;SDS011;10535;50.664;4.564;2022-10-17T02:20:14;9.87;;;4.70;;
20749;SDS011;10535;50.664;4.564;2022-10-17T02:28:28;8.40;;;4.83;;
20749;SDS011;10535;50.664;4.564;2022-10-17T02:31:07;10.73;;;4.63;;
20749;SDS011;10535;50.664;4.564;2022-10-17T02:33:49;7.53;;;4.60;;
20749;SDS011;10535;50.664;4.564;2022-10-17T02:36:22;7.13;;;4.53;;
20749;SDS011;10535;50.664;4.564;2022-10-17T02:38:52;6.40;;;4.63;;
20749;SDS011;10535;50.664;4.564;2022-10-17T02:41:19;6.93;;;4.47;;
20749;SDS011;10535;50.664;4.564;2022-10-17T02:43:47;5.30;;;4.00;;
20749;SDS011;10535;50.664;4.564;2022-10-17T02:46:15;6.83;;;5.00;;
20749;SDS011;10535;50.664;4.564;2022-10-17T02:51:46;7.10;;;3.60;;
20749;SDS011;10535;50.664;4.564;2022-10-17T02:54:18;9.17;;;4.33;;
20749;SDS011;10535;50.664;4.564;2022-10-17T02:56:49;5.90;;;4.17;;
20749;SDS011;10535;50.664;4.564;2022-10-17T02:59:19;7.30;;;4.87;;
20749;SDS011;10535;50.664;4.564;2022-10-17T03:01:47;8.13;;;4.37;;
20749;SDS011;10535;50.664;4.564;2022-10-17T03:04:15;6.00;;;4.17;;
20749;SDS011;10535;50.664;4.564;2022-10-17T03:06:42;5.60;;;4.47;;
20749;SDS011;10535;50.664;4.564;2022-10-17T03:09:10;7.40;;;4.80;;
20749;SDS011;10535;50.664;4.564;2022-10-17T03:11:36;8.30;;;4.60;;
20749;SDS011;10535;50.664;4.564;2022-10-17T03:14:01;8.30;;;4.33;;
20749;SDS011;10535;50.664;4.564;2022-10-17T03:16:27;9.77;;;4.53;;
20749;SDS011;10535;50.664;4.564;2022-10-17T03:18:53;7.17;;;4.40;;
20749;SDS011;10535;50.664;4.564;2022-10-17T03:21:18;5.37;;;4.20;;
20749;SDS011;10535;50.664;4.564;2022-10-17T03:23:44;5.97;;;4.47;;
20749;SDS011;10535;50.664;4.564;2022-10-17T03:26:10;6.33;;;4.70;;
20749;SDS011;10535;50.664;4.564;2022-10-17T03:28:35;6.77;;;4.97;;
20749;SDS011;10535;50.664;4.564;2022-10-17T03:31:08;8.47;;;4.60;;
20749;SDS011;10535;50.664;4.564;2022-10-17T03:33:35;8.50;;;5.70;;
20749;SDS011;10535;50.664;4.564;2022-10-17T03:36:08;9.23;;;6.13;;
20749;SDS011;10535;50.664;4.564;2022-10-17T03:38:37;7.73;;;5.67;;
20749;SDS011;10535;50.664;4.564;2022-10-17T03:41:03;8.00;;;5.07;;
20749;SDS011;10535;50.664;4.564;2022-10-17T03:43:29;7.80;;;4.87;;
20749;SDS011;10535;50.664;4.564;2022-10-17T03:45:56;11.00;;;5.13;;
20749;SDS011;10535;50.664;4.564;2022-10-17T03:48:22;9.20;;;4.23;;
20749;SDS011;10535;50.664;4.564;2022-10-17T03:50:48;7.80;;;5.00;;
20749;SDS011;10535;50.664;4.564;2022-10-17T03:53:14;7.70;;;4.77;;
20749;SDS011;10535;50.664;4.564;2022-10-17T03:55:41;9.60;;;4.50;;
20749;SDS011;10535;50.664;4.564;2022-10-17T03:58:07;6.83;;;3.90;;
20749;SDS011;10535;50.664;4.564;2022-10-17T04:00:34;6.73;;;4.37;;
20749;SDS011;10535;50.664;4.564;2022-10-17T04:03:00;6.03;;;4.10;;
20749;SDS011;10535;50.664;4.564;2022-10-17T04:05:26;6.13;;;4.33;;
20749;SDS011;10535;50.664;4.564;2022-10-17T04:07:51;5.67;;;4.07;;
20749;SDS011;10535;50.664;4.564;2022-10-17T04:10:17;8.57;;;4.50;;
20749;SDS011;10535;50.664;4.564;2022-10-17T04:12:43;8.93;;;4.77;;
20749;SDS011;10535;50.664;4.564;2022-10-17T04:15:08;6.77;;;4.93;;
20749;SDS011;10535;50.664;4.564;2022-10-17T04:17:34;8.67;;;4.83;;
20749;SDS011;10535;50.664;4.564;2022-10-17T04:20:00;10.10;;;5.07;;
20749;SDS011;10535;50.664;4.564;2022-10-17T04:22:25;8.70;;;5.20;;
20749;SDS011;10535;50.664;4.564;2022-10-17T04:24:51;7.53;;;4.77;;
20749;SDS011;10535;50.664;4.564;2022-10-17T04:27:17;7.43;;;4.77;;
20749;SDS011;10535;50.664;4.564;2022-10-17T04:29:43;7.77;;;4.63;;
20749;SDS011;10535;50.664;4.564;2022-10-17T04:32:08;6.77;;;4.43;;
20749;SDS011;10535;50.664;4.564;2022-10-17T04:34:34;7.27;;;4.30;;
20749;SDS011;10535;50.664;4.564;2022-10-17T04:36:59;6.13;;;3.93;;
20749;SDS011;10535;50.664;4.564;2022-10-17T04:39:25;6.87;;;4.07;;
20749;SDS011;10535;50.664;4.564;2022-10-17T04:41:51;6.87;;;4.47;;
20749;SDS011;10535;50.664;4.564;2022-10-17T04:44:17;10.67;;;5.33;;
20749;SDS011;10535;50.664;4.564;2022-10-17T04:46:44;6.77;;;4.57;;
20749;SDS011;10535;50.664;4.564;2022-10-17T04:49:10;7.40;;;5.30;;
20749;SDS011;10535;50.664;4.564;2022-10-17T04:51:36;9.53;;;5.07;;
20749;SDS011;10535;50.664;4.564;2022-10-17T04:54:04;5.53;;;4.80;;
20749;SDS011;10535;50.664;4.564;2022-10-17T04:56:29;7.53;;;4.33;;
20749;SDS011;10535;50.664;4.564;2022-10-17T04:58:56;9.50;;;5.33;;
20749;SDS011;10535;50.664;4.564;2022-10-17T05:01:24;7.60;;;4.67;;
20749;SDS011;10535;50.664;4.564;2022-10-17T05:03:51;8.20;;;4.00;;
20749;SDS011;10535;50.664;4.564;2022-10-17T05:06:18;7.53;;;4.27;;
20749;SDS011;10535;50.664;4.564;2022-10-17T05:08:45;5.70;;;4.33;;
20749;SDS011;10535;50.664;4.564;2022-10-17T05:11:18;10.57;;;4.20;;
20749;SDS011;10535;50.664;4.564;2022-10-17T05:13:50;5.60;;;4.17;;
20749;SDS011;10535;50.664;4.564;2022-10-17T05:16:23;8.80;;;4.90;;
20749;SDS011;10535;50.664;4.564;2022-10-17T05:18:52;6.10;;;4.10;;
20749;SDS011;10535;50.664;4.564;2022-10-17T05:21:19;8.73;;;4.87;;
20749;SDS011;10535;50.664;4.564;2022-10-17T05:23:46;7.03;;;4.07;;
20749;SDS011;10535;50.664;4.564;2022-10-17T05:26:12;6.33;;;4.33;;
20749;SDS011;10535;50.664;4.564;2022-10-17T05:28:39;4.67;;;3.50;;
20749;SDS011;10535;50.664;4.564;2022-10-17T05:31:05;4.70;;;3.57;;
20749;SDS011;10535;50.664;4.564;2022-10-17T05:33:32;7.07;;;3.77;;
20749;SDS011;10535;50.664;4.564;2022-10-17T05:35:58;7.40;;;4.43;;
20749;SDS011;10535;50.664;4.564;2022-10-17T05:38:24;5.97;;;3.90;;
20749;SDS011;10535;50.664;4.564;2022-10-17T05:40:50;5.20;;;3.97;;
20749;SDS011;10535;50.664;4.564;2022-10-17T05:43:16;5.20;;;3.67;;
20749;SDS011;10535;50.664;4.564;2022-10-17T05:45:42;10.73;;;4.67;;
20749;SDS011;10535;50.664;4.564;2022-10-17T05:48:07;5.73;;;4.00;;
20749;SDS011;10535;50.664;4.564;2022-10-17T05:50:33;7.27;;;3.87;;
20749;SDS011;10535;50.664;4.564;2022-10-17T05:53:00;5.27;;;3.73;;
20749;SDS011;10535;50.664;4.564;2022-10-17T05:55:25;5.13;;;3.90;;
20749;SDS011;10535;50.664;4.564;2022-10-17T05:57:51;7.20;;;4.10;;
20749;SDS011;10535;50.664;4.564;2022-10-17T06:00:18;7.00;;;3.77;;
20749;SDS011;10535;50.664;4.564;2022-10-17T06:02:44;7.30;;;4.40;;
20749;SDS011;10535;50.664;4.564;2022-10-17T06:05:11;4.73;;;3.43;;
20749;SDS011;10535;50.664;4.564;2022-10-17T06:07:37;6.17;;;4.10;;
20749;SDS011;10535;50.664;4.564;2022-10-17T06:10:02;6.20;;;3.50;;
20749;SDS011;10535;50.664;4.564;2022-10-17T06:12:28;5.70;;;3.60;;
20749;SDS011;10535;50.664;4.564;2022-10-17T06:14:54;5.63;;;3.53;;
20749;SDS011;10535;50.664;4.564;2022-10-17T06:17:20;5.60;;;3.50;;
20749;SDS011;10535;50.664;4.564;2022-10-17T06:19:45;7.33;;;3.40;;
20749;SDS011;10535;50.664;4.564;2022-10-17T06:22:11;14.20;;;3.77;;
20749;SDS011;10535;50.664;4.564;2022-10-17T06:24:37;4.83;;;3.20;;
20749;SDS011;10535;50.664;4.564;2022-10-17T06:27:02;3.90;;;3.40;;
20749;SDS011;10535;50.664;4.564;2022-10-17T06:29:28;9.57;;;3.43;;
20749;SDS011;10535;50.664;4.564;2022-10-17T06:31:54;5.93;;;3.37;;
20749;SDS011;10535;50.664;4.564;2022-10-17T06:34:19;4.07;;;3.23;;
20749;SDS011;10535;50.664;4.564;2022-10-17T06:36:45;6.20;;;3.63;;
20749;SDS011;10535;50.664;4.564;2022-10-17T06:39:11;8.67;;;3.40;;
20749;SDS011;10535;50.664;4.564;2022-10-17T06:41:36;6.57;;;3.37;;
20749;SDS011;10535;50.664;4.564;2022-10-17T06:44:04;5.07;;;2.93;;
20749;SDS011;10535;50.664;4.564;2022-10-17T06:46:34;4.93;;;3.77;;
20749;SDS011;10535;50.664;4.564;2022-10-17T06:49:01;4.90;;;3.00;;
20749;SDS011;10535;50.664;4.564;2022-10-17T06:51:26;3.10;;;2.70;;
20749;SDS011;10535;50.664;4.564;2022-10-17T06:53:52;5.90;;;3.33;;
20749;SDS011;10535;50.664;4.564;2022-10-17T06:56:17;5.40;;;2.80;;
20749;SDS011;10535;50.664;4.564;2022-10-17T06:58:43;4.40;;;2.70;;
20749;SDS011;10535;50.664;4.564;2022-10-17T07:01:11;5.20;;;2.43;;
20749;SDS011;10535;50.664;4.564;2022-10-17T07:03:37;4.60;;;2.50;;
20749;SDS011;10535;50.664;4.564;2022-10-17T07:06:04;6.57;;;2.93;;
20749;SDS011;10535;50.664;4.564;2022-10-17T07:08:30;4.13;;;2.60;;
20749;SDS011;10535;50.664;4.564;2022-10-17T07:10:56;7.27;;;3.20;;
20749;SDS011;10535;50.664;4.564;2022-10-17T07:13:22;6.27;;;2.67;;
20749;SDS011;10535;50.664;4.564;2022-10-17T07:15:49;3.83;;;2.47;;
20749;SDS011;10535;50.664;4.564;2022-10-17T07:18:15;7.13;;;2.87;;
20749;SDS011;10535;50.664;4.564;2022-10-17T07:20:40;4.43;;;2.97;;
20749;SDS011;10535;50.664;4.564;2022-10-17T07:23:06;6.97;;;3.30;;
20749;SDS011;10535;50.664;4.564;2022-10-17T07:25:32;6.23;;;2.53;;
20749;SDS011;10535;50.664;4.564;2022-10-17T07:27:57;4.73;;;2.80;;
20749;SDS011;10535;50.664;4.564;2022-10-17T07:30:23;4.13;;;2.40;;
20749;SDS011;10535;50.664;4.564;2022-10-17T07:32:51;6.07;;;2.80;;
20749;SDS011;10535;50.664;4.564;2022-10-17T07:35:18;4.70;;;2.80;;
20749;SDS011;10535;50.664;4.564;2022-10-17T07:37:43;6.47;;;3.67;;
20749;SDS011;10535;50.664;4.564;2022-10-17T07:40:09;5.30;;;2.77;;
20749;SDS011;10535;50.664;4.564;2022-10-17T07:42:35;4.77;;;2.87;;
20749;SDS011;10535;50.664;4.564;2022-10-17T07:45:01;4.00;;;3.10;;
20749;SDS011;10535;50.664;4.564;2022-10-17T07:47:27;4.50;;;2.53;;
20749;SDS011;10535;50.664;4.564;2022-10-17T07:49:55;4.23;;;2.60;;
20749;SDS011;10535;50.664;4.564;2022-10-17T07:52:20;5.23;;;3.17;;
20749;SDS011;10535;50.664;4.564;2022-10-17T07:54:46;5.30;;;2.47;;
20749;SDS011;10535;50.664;4.564;2022-10-17T07:57:12;4.43;;;2.27;;
20749;SDS011;10535;50.664;4.564;2022-10-17T07:59:38;3.23;;;2.83;;
20749;SDS011;10535;50.664;4.564;2022-10-17T08:02:04;5.10;;;2.83;;
20749;SDS011;10535;50.664;4.564;2022-10-17T08:04:32;8.37;;;3.30;;
20749;SDS011;10535;50.664;4.564;2022-10-17T08:06:58;3.47;;;2.80;;
20749;SDS011;10535;50.664;4.564;2022-10-17T08:09:25;3.87;;;2.80;;
20749;SDS011;10535;50.664;4.564;2022-10-17T08:11:51;6.30;;;2.50;;
20749;SDS011;10535;50.664;4.564;2022-10-17T08:14:16;6.47;;;2.90;;
20749;SDS011;10535;50.664;4.564;2022-10-17T08:16:42;5.00;;;2.47;;
20749;SDS011;10535;50.664;4.564;2022-10-17T08:19:08;4.30;;;3.30;;
20749;SDS011;10535;50.664;4.564;2022-10-17T08:21:35;4.43;;;2.80;;
20749;SDS011;10535;50.664;4.564;2022-10-17T08:24:01;5.53;;;2.67;;
20749;SDS011;10535;50.664;4.564;2022-10-17T08:26:27;4.00;;;2.90;;
20749;SDS011;10535;50.664;4.564;2022-10-17T08:28:54;3.43;;;2.47;;
20749;SDS011;10535;50.664;4.564;2022-10-17T08:31:20;4.70;;;3.07;;
20749;SDS011;10535;50.664;4.564;2022-10-17T08:33:47;6.53;;;3.37;;
20749;SDS011;10535;50.664;4.564;2022-10-17T08:36:14;5.73;;;3.37;;
20749;SDS011;10535;50.664;4.564;2022-10-17T08:38:41;5.30;;;2.87;;
20749;SDS011;10535;50.664;4.564;2022-10-17T08:47:15;8.50;;;3.30;;
20749;SDS011;10535;50.664;4.564;2022-10-17T08:49:48;6.73;;;3.63;;
20749;SDS011;10535;50.664;4.564;2022-10-17T08:55:03;5.10;;;3.30;;
20749;SDS011;10535;50.664;4.564;2022-10-17T08:57:37;6.43;;;3.47;;
20749;SDS011;10535;50.664;4.564;2022-10-17T09:00:03;8.03;;;4.07;;
20749;SDS011;10535;50.664;4.564;2022-10-17T09:13:38;6.03;;;4.40;;
20749;SDS011;10535;50.664;4.564;2022-10-17T09:24:12;8.87;;;3.73;;
20749;SDS011;10535;50.664;4.564;2022-10-17T09:26:43;7.63;;;3.87;;
20749;SDS011;10535;50.664;4.564;2022-10-17T09:29:15;8.80;;;4.27;;
20749;SDS011;10535;50.664;4.564;2022-10-17T09:32:10;7.10;;;3.90;;
20749;SDS011;10535;50.664;4.564;2022-10-17T09:34:41;6.50;;;3.30;;
20749;SDS011;10535;50.664;4.564;2022-10-17T09:37:14;6.37;;;3.53;;
20749;SDS011;10535;50.664;4.564;2022-10-17T09:39:41;9.00;;;3.77;;
20749;SDS011;10535;50.664;4.564;2022-10-17T09:42:14;4.40;;;3.40;;
20749;SDS011;10535;50.664;4.564;2022-10-17T09:44:56;4.37;;;3.50;;
20749;SDS011;10535;50.664;4.564;2022-10-17T09:47:39;5.33;;;3.57;;
20749;SDS011;10535;50.664;4.564;2022-10-17T09:50:31;6.40;;;3.60;;
20749;SDS011;10535;50.664;4.564;2022-10-17T09:52:59;6.27;;;3.47;;
20749;SDS011;10535;50.664;4.564;2022-10-17T09:55:51;6.53;;;4.10;;
20749;SDS011;10535;50.664;4.564;2022-10-17T09:58:20;5.70;;;3.63;;
20749;SDS011;10535;50.664;4.564;2022-10-17T10:00:46;8.50;;;3.83;;
20749;SDS011;10535;50.664;4.564;2022-10-17T10:03:17;9.30;;;3.50;;
20749;SDS011;10535;50.664;4.564;2022-10-17T10:05:57;8.03;;;3.97;;
20749;SDS011;10535;50.664;4.564;2022-10-17T10:08:25;5.33;;;2.90;;
20749;SDS011;10535;50.664;4.564;2022-10-17T10:11:00;7.03;;;3.37;;
20749;SDS011;10535;50.664;4.564;2022-10-17T10:13:29;6.87;;;3.23;;
20749;SDS011;10535;50.664;4.564;2022-10-17T10:16:11;7.03;;;2.60;;
20749;SDS011;10535;50.664;4.564;2022-10-17T10:18:39;3.27;;;2.63;;
20749;SDS011;10535;50.664;4.564;2022-10-17T10:21:15;6.27;;;2.83;;
20749;SDS011;10535;50.664;4.564;2022-10-17T10:26:33;4.27;;;2.70;;
20749;SDS011;10535;50.664;4.564;2022-10-17T10:31:55;3.50;;;2.60;;
20749;SDS011;10535;50.664;4.564;2022-10-17T10:34:31;3.25;;;2.40;;
20749;SDS011;10535;50.664;4.564;2022-10-17T10:37:13;7.13;;;2.40;;
20749;SDS011;10535;50.664;4.564;2022-10-17T10:39:47;10.70;;;3.00;;
20749;SDS011;10535;50.664;4.564;2022-10-17T10:44:49;5.23;;;2.23;;
20749;SDS011;10535;50.664;4.564;2022-10-17T10:47:19;8.73;;;2.83;;
20749;SDS011;10535;50.664;4.564;2022-10-17T10:49:49;5.97;;;2.57;;
20749;SDS011;10535;50.664;4.564;2022-10-17T10:52:22;6.43;;;2.20;;
20749;SDS011;10535;50.664;4.564;2022-10-17T10:55:31;5.67;;;2.37;;
20749;SDS011;10535;50.664;4.564;2022-10-17T10:58:02;4.53;;;2.53;;
20749;SDS011;10535;50.664;4.564;2022-10-17T11:00:33;4.73;;;2.33;;
20749;SDS011;10535;50.664;4.564;2022-10-17T11:03:18;4.20;;;2.43;;
20749;SDS011;10535;50.664;4.564;2022-10-17T11:05:53;7.80;;;2.87;;
20749;SDS011;10535;50.664;4.564;2022-10-17T11:11:06;5.07;;;2.53;;
20749;SDS011;10535;50.664;4.564;2022-10-17T11:13:50;9.87;;;3.20;;
20749;SDS011;10535;50.664;4.564;2022-10-17T11:16:34;6.40;;;2.50;;
20749;SDS011;10535;50.664;4.564;2022-10-17T11:24:23;8.20;;;2.67;;
20749;SDS011;10535;50.664;4.564;2022-10-17T11:26:55;5.10;;;2.53;;
20749;SDS011;10535;50.664;4.564;2022-10-17T11:29:27;6.37;;;2.73;;
20749;SDS011;10535;50.664;4.564;2022-10-17T11:31:55;6.00;;;3.67;;
20749;SDS011;10535;50.664;4.564;2022-10-17T11:34:26;5.83;;;3.43;;
20749;SDS011;10535;50.664;4.564;2022-10-17T11:36:58;6.67;;;3.10;;
20749;SDS011;10535;50.664;4.564;2022-10-17T11:39:39;7.33;;;3.40;;
20749;SDS011;10535;50.664;4.564;2022-10-17T11:42:08;5.60;;;2.93;;
20749;SDS011;10535;50.664;4.564;2022-10-17T11:44:38;4.23;;;2.40;;
20749;SDS011;10535;50.664;4.564;2022-10-17T11:49:37;3.37;;;2.67;;
20749;SDS011;10535;50.664;4.564;2022-10-17T11:52:19;4.90;;;3.10;;
20749;SDS011;10535;50.664;4.564;2022-10-17T11:54:53;6.83;;;3.07;;
20749;SDS011;10535;50.664;4.564;2022-10-17T11:57:48;7.97;;;3.23;;
20749;SDS011;10535;50.664;4.564;2022-10-17T12:00:16;8.67;;;2.73;;
20749;SDS011;10535;50.664;4.564;2022-10-17T12:02:59;4.97;;;2.97;;
20749;SDS011;10535;50.664;4.564;2022-10-17T12:11:13;6.60;;;3.37;;
20749;SDS011;10535;50.664;4.564;2022-10-17T12:14:00;8.67;;;3.10;;
20749;SDS011;10535;50.664;4.564;2022-10-17T12:21:27;6.67;;;3.67;;
20749;SDS011;10535;50.664;4.564;2022-10-17T12:24:12;4.23;;;3.30;;
20749;SDS011;10535;50.664;4.564;2022-10-17T12:26:53;7.93;;;3.63;;
20749;SDS011;10535;50.664;4.564;2022-10-17T12:29:25;6.80;;;3.73;;
20749;SDS011;10535;50.664;4.564;2022-10-17T12:31:53;8.67;;;4.23;;
20749;SDS011;10535;50.664;4.564;2022-10-17T12:34:33;4.80;;;2.93;;
20749;SDS011;10535;50.664;4.564;2022-10-17T12:36:59;4.63;;;3.07;;
20749;SDS011;10535;50.664;4.564;2022-10-17T12:49:23;11.83;;;4.33;;
20749;SDS011;10535;50.664;4.564;2022-10-17T12:54:50;4.87;;;3.87;;
20749;SDS011;10535;50.664;4.564;2022-10-17T12:57:24;10.97;;;4.50;;
20749;SDS011;10535;50.664;4.564;2022-10-17T13:03:00;7.40;;;3.70;;
20749;SDS011;10535;50.664;4.564;2022-10-17T13:05:51;10.47;;;3.73;;
20749;SDS011;10535;50.664;4.564;2022-10-17T13:08:23;7.03;;;3.53;;
20749;SDS011;10535;50.664;4.564;2022-10-17T13:11:01;6.30;;;4.00;;
20749;SDS011;10535;50.664;4.564;2022-10-17T13:13:41;6.73;;;3.47;;
20749;SDS011;10535;50.664;4.564;2022-10-17T13:16:27;5.30;;;3.63;;
20749;SDS011;10535;50.664;4.564;2022-10-17T13:19:01;6.90;;;4.03;;
20749;SDS011;10535;50.664;4.564;2022-10-17T13:21:29;6.10;;;3.70;;
20749;SDS011;10535;50.664;4.564;2022-10-17T13:23:54;11.03;;;3.97;;
20749;SDS011;10535;50.664;4.564;2022-10-17T13:26:24;10.07;;;4.17;;
20749;SDS011;10535;50.664;4.564;2022-10-17T13:29:11;5.80;;;3.70;;
20749;SDS011;10535;50.664;4.564;2022-10-17T13:31:40;7.43;;;4.00;;
20749;SDS011;10535;50.664;4.564;2022-10-17T13:34:15;7.40;;;4.00;;
20749;SDS011;10535;50.664;4.564;2022-10-17T13:36:42;6.63;;;4.07;;
20749;SDS011;10535;50.664;4.564;2022-10-17T13:39:15;8.57;;;3.83;;
20749;SDS011;10535;50.664;4.564;2022-10-17T13:41:43;9.50;;;4.60;;
20749;SDS011;10535;50.664;4.564;2022-10-17T13:44:11;9.30;;;4.03;;
20749;SDS011;10535;50.664;4.564;2022-10-17T13:46:39;8.23;;;3.50;;
20749;SDS011;10535;50.664;4.564;2022-10-17T13:49:15;11.07;;;4.33;;
20749;SDS011;10535;50.664;4.564;2022-10-17T13:51:51;5.13;;;3.97;;
20749;SDS011;10535;50.664;4.564;2022-10-17T13:54:41;5.40;;;3.90;;
20749;SDS011;10535;50.664;4.564;2022-10-17T13:57:24;5.87;;;3.80;;
20749;SDS011;10535;50.664;4.564;2022-10-17T13:59:52;5.50;;;3.73;;
20749;SDS011;10535;50.664;4.564;2022-10-17T14:02:27;10.33;;;3.83;;
20749;SDS011;10535;50.664;4.564;2022-10-17T14:07:48;7.27;;;3.70;;
20749;SDS011;10535;50.664;4.564;2022-10-17T14:10:25;5.87;;;3.50;;
20749;SDS011;10535;50.664;4.564;2022-10-17T14:12:55;12.07;;;4.07;;
20749;SDS011;10535;50.664;4.564;2022-10-17T14:15:23;6.63;;;3.80;;
20749;SDS011;10535;50.664;4.564;2022-10-17T14:17:58;8.03;;;4.00;;
20749;SDS011;10535;50.664;4.564;2022-10-17T14:20:32;8.83;;;4.17;;
20749;SDS011;10535;50.664;4.564;2022-10-17T14:22:59;6.33;;;4.17;;
20749;SDS011;10535;50.664;4.564;2022-10-17T14:25:34;6.47;;;3.60;;
20749;SDS011;10535;50.664;4.564;2022-10-17T14:30:38;7.53;;;4.00;;
20749;SDS011;10535;50.664;4.564;2022-10-17T14:33:22;8.70;;;3.77;;
20749;SDS011;10535;50.664;4.564;2022-10-17T14:36:44;7.50;;;4.10;;
20749;SDS011;10535;50.664;4.564;2022-10-17T14:39:17;5.80;;;4.00;;
20749;SDS011;10535;50.664;4.564;2022-10-17T14:41:46;13.00;;;5.00;;
20749;SDS011;10535;50.664;4.564;2022-10-17T14:44:35;9.13;;;4.67;;
20749;SDS011;10535;50.664;4.564;2022-10-17T14:47:06;9.43;;;4.73;;
20749;SDS011;10535;50.664;4.564;2022-10-17T14:49:41;7.23;;;4.40;;
20749;SDS011;10535;50.664;4.564;2022-10-17T14:54:45;9.30;;;4.60;;
20749;SDS011;10535;50.664;4.564;2022-10-17T14:59:46;6.53;;;4.73;;
20749;SDS011;10535;50.664;4.564;2022-10-17T15:02:12;7.23;;;4.83;;
20749;SDS011;10535;50.664;4.564;2022-10-17T15:04:38;6.33;;;3.93;;
20749;SDS011;10535;50.664;4.564;2022-10-17T15:07:11;8.03;;;3.70;;
20749;SDS011;10535;50.664;4.564;2022-10-17T15:09:41;9.87;;;4.27;;
20749;SDS011;10535;50.664;4.564;2022-10-17T15:12:11;9.67;;;4.70;;
20749;SDS011;10535;50.664;4.564;2022-10-17T15:14:43;7.63;;;4.60;;
20749;SDS011;10535;50.664;4.564;2022-10-17T15:17:16;10.07;;;4.53;;
20749;SDS011;10535;50.664;4.564;2022-10-17T15:20:02;6.80;;;4.20;;
20749;SDS011;10535;50.664;4.564;2022-10-17T15:22:28;12.23;;;3.90;;
20749;SDS011;10535;50.664;4.564;2022-10-17T15:24:58;7.50;;;4.83;;
20749;SDS011;10535;50.664;4.564;2022-10-17T15:27:37;7.90;;;3.87;;
20749;SDS011;10535;50.664;4.564;2022-10-17T15:30:30;5.70;;;3.80;;
20749;SDS011;10535;50.664;4.564;2022-10-17T15:32:58;5.07;;;3.77;;
20749;SDS011;10535;50.664;4.564;2022-10-17T15:48:30;5.83;;;3.87;;
20749;SDS011;10535;50.664;4.564;2022-10-17T15:51:07;9.60;;;4.13;;
20749;SDS011;10535;50.664;4.564;2022-10-17T15:53:46;6.00;;;4.03;;
20749;SDS011;10535;50.664;4.564;2022-10-17T15:56:42;5.30;;;4.20;;
20749;SDS011;10535;50.664;4.564;2022-10-17T15:59:21;8.67;;;4.37;;
20749;SDS011;10535;50.664;4.564;2022-10-17T16:01:58;10.30;;;4.07;;
20749;SDS011;10535;50.664;4.564;2022-10-17T16:04:24;7.23;;;4.40;;
20749;SDS011;10535;50.664;4.564;2022-10-17T16:06:51;6.77;;;3.97;;
20749;SDS011;10535;50.664;4.564;2022-10-17T16:09:40;6.03;;;3.90;;
20749;SDS011;10535;50.664;4.564;2022-10-17T16:12:09;7.47;;;3.93;;
20749;SDS011;10535;50.664;4.564;2022-10-17T16:17:16;7.20;;;3.90;;
20749;SDS011;10535;50.664;4.564;2022-10-17T16:19:47;8.23;;;4.30;;
20749;SDS011;10535;50.664;4.564;2022-10-17T16:22:29;5.47;;;3.60;;
20749;SDS011;10535;50.664;4.564;2022-10-17T16:25:05;10.33;;;3.97;;
20749;SDS011;10535;50.664;4.564;2022-10-17T16:27:50;4.37;;;3.43;;
20749;SDS011;10535;50.664;4.564;2022-10-17T16:33:01;7.53;;;3.80;;
20749;SDS011;10535;50.664;4.564;2022-10-17T16:35:45;5.33;;;3.77;;
20749;SDS011;10535;50.664;4.564;2022-10-17T16:38:16;7.83;;;3.53;;
20749;SDS011;10535;50.664;4.564;2022-10-17T16:40:41;4.23;;;2.77;;
20749;SDS011;10535;50.664;4.564;2022-10-17T16:43:11;3.37;;;2.47;;
20749;SDS011;10535;50.664;4.564;2022-10-17T16:45:37;8.23;;;3.10;;
20749;SDS011;10535;50.664;4.564;2022-10-17T16:48:04;8.17;;;2.90;;
20749;SDS011;10535;50.664;4.564;2022-10-17T16:50:30;6.53;;;2.70;;
20749;SDS011;10535;50.664;4.564;2022-10-17T16:52:59;4.27;;;2.80;;
20749;SDS011;10535;50.664;4.564;2022-10-17T16:55:25;3.07;;;2.37;;
20749;SDS011;10535;50.664;4.564;2022-10-17T16:57:51;5.07;;;2.60;;
20749;SDS011;10535;50.664;4.564;2022-10-17T17:00:46;5.40;;;2.80;;
20749;SDS011;10535;50.664;4.564;2022-10-17T17:06:27;4.53;;;3.00;;
20749;SDS011;10535;50.664;4.564;2022-10-17T17:08:56;6.07;;;2.60;;
20749;SDS011;10535;50.664;4.564;2022-10-17T17:11:24;3.43;;;2.90;;
20749;SDS011;10535;50.664;4.564;2022-10-17T17:13:53;3.47;;;2.83;;
20749;SDS011;10535;50.664;4.564;2022-10-17T17:16:22;8.27;;;4.13;;
20749;SDS011;10535;50.664;4.564;2022-10-17T17:18:57;5.23;;;3.93;;
20749;SDS011;10535;50.664;4.564;2022-10-17T17:21:30;4.23;;;2.50;;
20749;SDS011;10535;50.664;4.564;2022-10-17T17:23:57;5.43;;;3.17;;
20749;SDS011;10535;50.664;4.564;2022-10-17T17:26:24;4.77;;;3.10;;
20749;SDS011;10535;50.664;4.564;2022-10-17T17:28:52;12.37;;;5.27;;
20749;SDS011;10535;50.664;4.564;2022-10-17T17:31:20;7.43;;;4.37;;